Time;durP1;ratioP1;P1;durP2;ratioP2;P2;SDS_P1;SDS_P2;PMS_P1;PMS_P2;Temp;Humidity;BMP_temperature;BMP_pressure;BME280_temperature;BME280_humidity;BME280_pressure;Samples;Min_cycle;Max_cycle;Signal;HPM_P1;HPM_P2
2022/10/10 00:02:11;;;;;;;8.63;2.03;;;;;;;8.00;100.00;100975.41;5209102;28;20044;-77
2022/10/10 00:04:42;;;;;;;6.72;1.95;;;;;;;7.88;100.00;100975.63;5209946;28;20628;-78
2022/10/10 00:07:13;;;;;;;7.75;1.90;;;;;;;7.83;100.00;100969.66;5204370;28;20458;-78
2022/10/10 00:09:43;;;;;;;8.35;2.10;;;;;;;7.83;100.00;100973.97;5208858;28;20111;-77
2022/10/10 00:12:13;;;;;;;9.18;1.75;;;;;;;7.90;100.00;100968.63;5209119;28;20021;-78
2022/10/10 00:14:44;;;;;;;7.35;2.03;;;;;;;7.92;100.00;100971.22;5211098;28;20027;-77
2022/10/10 00:17:14;;;;;;;8.40;2.45;;;;;;;7.87;100.00;100968.69;5208648;28;20099;-77
2022/10/10 00:19:44;;;;;;;9.32;2.10;;;;;;;7.85;100.00;100965.28;5209946;28;20355;-77
2022/10/10 00:22:14;;;;;;;6.78;1.85;;;;;;;7.84;100.00;100963.56;5194967;28;20025;-77
2022/10/10 00:24:45;;;;;;;6.75;2.03;;;;;;;7.71;100.00;100956.00;5208571;28;20025;-77
2022/10/10 00:27:15;;;;;;;6.97;2.22;;;;;;;7.74;100.00;100958.56;5207405;28;20083;-77
2022/10/10 00:29:45;;;;;;;4.40;1.80;;;;;;;7.73;100.00;100955.06;5211981;28;20371;-78
2022/10/10 00:32:16;;;;;;;6.63;2.17;;;;;;;7.66;100.00;100947.44;5209212;28;20036;-77
2022/10/10 00:34:46;;;;;;;9.15;2.03;;;;;;;7.64;100.00;100943.97;5203823;28;20059;-77
2022/10/10 00:37:16;;;;;;;6.32;2.08;;;;;;;7.64;100.00;100943.97;5207475;28;20037;-77
2022/10/10 00:39:47;;;;;;;5.85;2.08;;;;;;;7.54;100.00;100942.44;5211422;28;20029;-77
2022/10/10 00:42:18;;;;;;;6.03;2.22;;;;;;;7.59;100.00;100936.28;5209135;28;20608;-77
2022/10/10 00:45:28;;;;;;;8.65;2.03;;;;;;;7.55;100.00;100934.59;5211151;28;20075;-78
2022/10/10 00:48:14;;;;;;;6.75;2.10;;;;;;;7.56;100.00;100927.66;5208684;28;20033;-77
2022/10/10 00:50:59;;;;;;;6.20;1.92;;;;;;;7.64;100.00;100925.78;5204966;28;20418;-77
2022/10/10 00:53:35;;;;;;;11.68;2.15;;;;;;;7.40;100.00;100916.69;5210897;28;20037;-77
2022/10/10 00:56:07;;;;;;;10.10;2.17;;;;;;;7.41;100.00;100917.53;5208231;28;20542;-77
2022/10/10 00:58:42;;;;;;;6.05;1.95;;;;;;;7.40;100.00;100914.09;5211246;28;20025;-77
2022/10/10 01:01:12;;;;;;;11.80;2.50;;;;;;;7.30;100.00;100907.31;5204027;28;20030;-77
2022/10/10 01:03:43;;;;;;;10.07;2.28;;;;;;;7.29;100.00;100908.22;5212342;28;20284;-77
2022/10/10 01:06:13;;;;;;;5.88;2.20;;;;;;;7.43;100.00;100903.63;5205772;28;20045;-77
2022/10/10 01:08:43;;;;;;;5.20;2.13;;;;;;;7.30;100.00;100896.94;5211788;28;20075;-77
2022/10/10 01:11:14;;;;;;;7.32;2.10;;;;;;;7.46;100.00;100892.31;5208129;28;20333;-77
2022/10/10 01:13:54;;;;;;;9.13;2.20;;;;;;;7.42;100.00;100891.53;5212497;28;20028;-77
2022/10/10 01:16:49;;;;;;;7.32;2.40;;;;;;;7.35;100.00;100891.66;5208960;28;20272;-77
2022/10/10 01:19:46;;;;;;;6.88;2.35;;;;;;;7.37;100.00;100887.28;5206429;28;20032;-77
2022/10/10 01:22:36;;;;;;;7.13;2.08;;;;;;;7.47;100.00;100884.50;5202111;28;20028;-77
2022/10/10 01:25:06;;;;;;;8.25;2.47;;;;;;;7.48;100.00;100886.19;5205962;28;20052;-77
2022/10/10 01:27:46;;;;;;;5.55;2.28;;;;;;;7.48;100.00;100875.81;5208366;28;20064;-77
2022/10/10 01:30:21;;;;;;;8.07;2.00;;;;;;;7.46;100.00;100881.91;5203682;28;20032;-77
2022/10/10 01:33:13;;;;;;;7.90;2.15;;;;;;;7.47;100.00;100874.09;5211025;28;20200;-77
2022/10/10 01:35:59;;;;;;;6.43;2.15;;;;;;;7.49;100.00;100881.88;5205591;28;20494;-78
2022/10/10 01:38:49;;;;;;;5.75;2.15;;;;;;;7.45;100.00;100881.06;5207330;28;20040;-77
2022/10/10 01:41:33;;;;;;;6.75;2.38;;;;;;;7.46;100.00;100874.09;5205977;28;20471;-77
2022/10/10 01:44:03;;;;;;;5.65;2.40;;;;;;;7.44;100.00;100871.53;5209326;28;20098;-77
2022/10/10 01:46:33;;;;;;;7.43;2.10;;;;;;;7.46;100.00;100872.38;5210757;28;20473;-77
2022/10/10 01:49:04;;;;;;;10.05;2.33;;;;;;;7.42;100.00;100875.91;5207464;28;20021;-77
2022/10/10 01:51:34;;;;;;;6.72;2.08;;;;;;;7.41;100.00;100869.00;5208537;28;20486;-77
2022/10/10 01:54:32;;;;;;;6.32;2.03;;;;;;;7.41;100.00;100868.13;5202862;28;20059;-77
2022/10/10 01:57:43;;;;;;;6.68;2.20;;;;;;;7.32;100.00;100861.34;5212698;28;20068;-77
2022/10/10 02:00:16;;;;;;;6.05;2.17;;;;;;;7.43;100.00;100854.22;5207790;28;20026;-77
2022/10/10 02:03:04;;;;;;;8.93;2.38;;;;;;;7.38;100.00;100856.03;5212635;28;20027;-77
2022/10/10 02:05:49;;;;;;;6.40;2.33;;;;;;;7.40;100.00;100851.69;5214212;28;20216;-77
2022/10/10 02:08:30;;;;;;;7.72;1.92;;;;;;;7.37;100.00;100845.69;5211533;28;20098;-78
2022/10/10 02:11:07;;;;;;;6.95;2.38;;;;;;;7.37;100.00;100849.13;5206134;28;20029;-78
2022/10/10 02:13:57;;;;;;;5.90;2.13;;;;;;;7.27;100.00;100848.47;5211746;28;20107;-77
2022/10/10 02:16:33;;;;;;;4.65;2.00;;;;;;;7.32;100.00;100843.16;5210270;28;20025;-76
2022/10/10 02:19:08;;;;;;;6.78;2.00;;;;;;;7.30;100.00;100839.75;5212575;28;20025;-77
2022/10/10 02:21:39;;;;;;;5.63;2.15;;;;;;;7.29;100.00;100838.03;5215260;28;20032;-78
2022/10/10 02:24:12;;;;;;;4.97;2.10;;;;;;;7.26;100.00;100831.19;5211688;28;20029;-77
2022/10/10 02:26:45;;;;;;;5.53;2.13;;;;;;;7.26;100.00;100833.78;5206997;28;20025;-77
2022/10/10 02:29:20;;;;;;;9.05;2.10;;;;;;;7.15;100.00;100822.69;5213969;28;20108;-78
2022/10/10 02:32:04;;;;;;;6.20;1.98;;;;;;;7.15;100.00;100827.91;5212114;28;20079;-77
2022/10/10 02:34:37;;;;;;;8.98;2.30;;;;;;;7.17;100.00;100819.19;5212196;28;20025;-77
2022/10/10 02:37:11;;;;;;;6.32;2.20;;;;;;;7.18;100.00;100820.91;5192229;28;20116;-77
2022/10/10 02:39:47;;;;;;;7.45;2.30;;;;;;;7.18;100.00;100820.03;5204098;28;20402;-77
2022/10/10 02:42:20;;;;;;;6.07;2.00;;;;;;;7.26;100.00;100820.78;5213571;28;20033;-78
2022/10/10 02:44:51;;;;;;;6.03;2.00;;;;;;;7.37;100.00;100810.13;5212244;28;20035;-77
2022/10/10 02:47:21;;;;;;;9.15;2.40;;;;;;;7.34;100.00;100804.16;5195762;28;20029;-78
2022/10/10 02:49:51;;;;;;;6.43;2.00;;;;;;;7.51;100.00;100802.94;5211925;28;20021;-78
2022/10/10 02:52:22;;;;;;;9.07;2.30;;;;;;;7.52;100.00;100798.59;5210182;28;20116;-78
2022/10/10 02:54:52;;;;;;;6.75;2.20;;;;;;;7.52;100.00;100794.22;5206451;28;20064;-77
2022/10/10 02:57:23;;;;;;;7.13;1.83;;;;;;;7.51;100.00;100802.94;5212957;28;20037;-78
2022/10/10 02:59:53;;;;;;;5.95;2.10;;;;;;;7.44;100.00;100795.28;5211858;28;20030;-78
2022/10/10 03:02:23;;;;;;;10.80;2.40;;;;;;;7.34;100.00;100792.00;5212683;28;20560;-77
2022/10/10 03:04:54;;;;;;;9.88;2.30;;;;;;;7.34;100.00;100784.19;5211666;28;20359;-77
2022/10/10 03:07:25;;;;;;;6.03;2.00;;;;;;;7.32;100.00;100780.78;5211327;28;20065;-78
2022/10/10 03:09:56;;;;;;;7.93;2.28;;;;;;;7.37;100.00;100778.09;5207910;28;20112;-77
2022/10/10 03:12:26;;;;;;;9.98;2.20;;;;;;;7.39;100.00;100774.56;5207612;28;20120;-78
2022/10/10 03:14:56;;;;;;;6.40;1.92;;;;;;;7.48;100.00;100776.13;5212216;28;20108;-77
2022/10/10 03:17:26;;;;;;;9.27;2.00;;;;;;;7.57;100.00;100782.03;5207858;28;20043;-77
2022/10/10 03:19:57;;;;;;;6.22;2.03;;;;;;;7.61;100.00;100772.38;5206376;28;20495;-77
2022/10/10 03:22:27;;;;;;;6.38;1.80;;;;;;;7.64;100.00;100775.78;5212461;28;20138;-78
2022/10/10 03:24:57;;;;;;;6.80;2.10;;;;;;;7.65;100.00;100767.09;5212065;28;20084;-77
2022/10/10 03:27:28;;;;;;;9.98;2.05;;;;;;;7.64;100.00;100774.94;5211972;28;20128;-77
2022/10/10 03:29:58;;;;;;;7.82;2.20;;;;;;;7.61;100.00;100773.25;5212797;28;20021;-77
2022/10/10 03:32:28;;;;;;;5.88;1.85;;;;;;;7.66;100.00;100766.22;5212435;28;20041;-77
2022/10/10 03:34:58;;;;;;;8.23;2.20;;;;;;;7.66;100.00;100768.81;5211517;28;20044;-77
2022/10/10 03:37:29;;;;;;;9.25;2.35;;;;;;;7.56;100.00;100769.88;5211758;28;20041;-77
2022/10/10 03:40:00;;;;;;;8.30;2.03;;;;;;;7.44;100.00;100770.16;5193482;28;20082;-77
2022/10/10 03:42:30;;;;;;;7.28;2.22;;;;;;;7.41;100.00;100762.41;5212913;28;20029;-78
2022/10/10 03:45:01;;;;;;;4.45;1.70;;;;;;;7.42;100.00;100764.13;5205422;28;20036;-78
2022/10/10 03:47:31;;;;;;;4.32;1.80;;;;;;;7.28;100.00;100759.22;5209320;28;20029;-78
2022/10/10 03:50:01;;;;;;;7.65;2.03;;;;;;;7.32;100.00;100764.34;5211551;28;20501;-77
2022/10/10 03:52:31;;;;;;;3.55;1.75;;;;;;;7.29;100.00;100766.97;5211240;28;20044;-77
2022/10/10 03:55:02;;;;;;;5.32;1.90;;;;;;;7.33;100.00;100761.69;5194591;28;20099;-78
2022/10/10 03:57:33;;;;;;;6.68;1.77;;;;;;;7.30;100.00;100761.75;5210293;28;20049;-78
2022/10/10 04:00:04;;;;;;;9.20;2.42;;;;;;;7.44;100.00;100754.53;5212333;28;20032;-77
2022/10/10 04:02:35;;;;;;;5.00;2.13;;;;;;;7.46;100.00;100757.97;5192720;28;20022;-77
2022/10/10 04:05:05;;;;;;;4.53;1.85;;;;;;;7.45;100.00;100753.66;5192355;28;20033;-77
2022/10/10 04:07:36;;;;;;;8.80;1.90;;;;;;;7.42;100.00;100745.91;5212473;28;20090;-77
2022/10/10 04:10:07;;;;;;;7.28;2.10;;;;;;;7.40;100.00;100742.50;5210530;28;20041;-77
2022/10/10 04:12:37;;;;;;;6.13;1.88;;;;;;;7.50;100.00;100749.22;5208257;28;20025;-77
2022/10/10 04:15:08;;;;;;;5.05;1.92;;;;;;;7.36;100.00;100750.38;5204766;28;20031;-78
2022/10/10 04:17:39;;;;;;;5.18;2.10;;;;;;;7.32;100.00;100740.94;5207998;28;20022;-75
2022/10/10 04:20:09;;;;;;;6.30;1.95;;;;;;;7.22;100.00;100742.84;5213066;28;20024;-78
2022/10/10 04:22:39;;;;;;;8.40;2.35;;;;;;;7.18;100.00;100739.47;5209828;28;20100;-77
2022/10/10 04:25:10;;;;;;;5.40;2.00;;;;;;;7.11;100.00;100735.28;5212948;28;20024;-78
2022/10/10 04:27:42;;;;;;;7.20;1.83;;;;;;;7.16;100.00;100746.44;5209015;28;20033;-77
2022/10/10 04:30:12;;;;;;;6.60;2.13;;;;;;;7.10;100.00;100730.97;5212718;28;20430;-77
2022/10/10 04:32:43;;;;;;;6.32;2.00;;;;;;;7.08;100.00;100730.16;5205611;28;20033;-77
2022/10/10 04:35:13;;;;;;;6.22;1.98;;;;;;;7.08;100.00;100727.56;5209291;28;20048;-77
2022/10/10 04:37:44;;;;;;;8.43;2.20;;;;;;;7.02;100.00;100723.34;5200378;28;20037;-77
2022/10/10 04:40:15;;;;;;;6.40;2.30;;;;;;;7.05;100.00;100719.81;5208984;28;20020;-77
2022/10/10 04:42:45;;;;;;;9.77;2.10;;;;;;;7.09;100.00;100724.09;5191344;28;20075;-77
2022/10/10 04:45:15;;;;;;;8.15;2.22;;;;;;;7.05;100.00;100725.00;5206287;28;20031;-77
2022/10/10 04:47:45;;;;;;;5.22;2.13;;;;;;;7.07;100.00;100725.84;5210237;28;20029;-77
2022/10/10 04:50:16;;;;;;;7.78;2.20;;;;;;;7.11;100.00;100727.50;5193852;28;20111;-77
2022/10/10 04:52:46;;;;;;;11.48;2.38;;;;;;;7.16;100.00;100728.25;5209388;28;20029;-77
2022/10/10 04:55:16;;;;;;;8.80;2.15;;;;;;;7.25;100.00;100726.34;5212049;28;20029;-78
2022/10/10 04:57:47;;;;;;;7.93;2.25;;;;;;;7.25;100.00;100728.94;5208884;28;20434;-78
2022/10/10 05:00:17;;;;;;;8.98;2.20;;;;;;;7.28;100.00;100724.53;5212175;28;20128;-77
2022/10/10 05:02:48;;;;;;;9.70;2.42;;;;;;;7.47;100.00;100727.59;5209207;28;20562;-78
2022/10/10 05:05:18;;;;;;;6.60;2.28;;;;;;;7.25;100.00;100728.94;5208691;28;20025;-77
2022/10/10 05:07:48;;;;;;;7.53;2.20;;;;;;;7.28;100.00;100733.22;5206615;28;20430;-77
2022/10/10 05:10:18;;;;;;;7.88;2.28;;;;;;;7.25;100.00;100726.34;5205691;28;20375;-77
2022/10/10 05:12:49;;;;;;;8.45;2.47;;;;;;;7.22;100.00;100732.44;5209408;28;20119;-78
2022/10/10 05:15:20;;;;;;;5.95;2.20;;;;;;;7.23;100.00;100722.91;5211443;28;20032;-78
2022/10/10 05:17:52;;;;;;;7.65;2.22;;;;;;;7.14;100.00;100724.84;5208871;28;20402;-78
2022/10/10 05:20:22;;;;;;;8.20;2.78;;;;;;;7.02;100.00;100733.72;5211009;28;20473;-77
2022/10/10 05:22:52;;;;;;;6.57;2.83;;;;;;;6.93;100.00;100722.66;5207446;28;20029;-77
2022/10/10 05:25:22;;;;;;;7.10;2.50;;;;;;;6.85;100.00;100729.72;5207527;28;20392;-77
2022/10/10 05:27:53;;;;;;;7.75;2.75;;;;;;;6.90;100.00;100722.72;5184741;28;20021;-77
2022/10/10 05:30:23;;;;;;;10.73;2.80;;;;;;;6.96;100.00;100727.78;5206197;28;20041;-77
2022/10/10 05:32:54;;;;;;;8.88;2.78;;;;;;;6.94;100.00;100719.16;5212539;28;20501;-77
2022/10/10 05:35:24;;;;;;;9.52;2.47;;;;;;;6.88;100.00;100711.47;5207523;28;20037;-77
2022/10/10 05:37:54;;;;;;;7.00;2.70;;;;;;;6.88;100.00;100714.06;5209239;28;20462;-77
2022/10/10 05:40:25;;;;;;;6.90;2.33;;;;;;;6.92;100.00;100707.94;5211874;28;20037;-77
2022/10/10 05:42:55;;;;;;;7.35;2.95;;;;;;;6.70;100.00;100714.41;5210012;28;20052;-77
2022/10/10 05:45:25;;;;;;;7.03;2.28;;;;;;;6.66;100.00;100708.44;5214132;28;20033;-77
2022/10/10 05:47:55;;;;;;;5.82;2.78;;;;;;;6.76;100.00;100720.34;5188811;28;20033;-77
2022/10/10 05:50:32;;;;;;;8.70;2.92;;;;;;;6.76;100.00;100714.31;5208526;28;20025;-77
2022/10/10 05:53:03;;;;;;;7.60;3.10;;;;;;;6.78;100.00;100712.53;5214839;28;20064;-77
2022/10/10 05:55:34;;;;;;;9.27;3.10;;;;;;;6.81;100.00;100712.47;5213022;28;20111;-77
2022/10/10 05:58:06;;;;;;;11.13;3.15;;;;;;;6.97;100.00;100711.31;5214190;28;20538;-77
2022/10/10 06:00:36;;;;;;;7.90;3.10;;;;;;;6.91;100.00;100704.47;5211326;28;20585;-77
2022/10/10 06:03:07;;;;;;;7.70;3.35;;;;;;;6.88;100.00;100698.47;5215259;28;20043;-76
2022/10/10 06:05:37;;;;;;;7.97;3.00;;;;;;;6.94;100.00;100703.59;5193476;28;20036;-77
2022/10/10 06:08:08;;;;;;;16.50;3.20;;;;;;;6.90;100.00;100699.34;5211933;28;20361;-77
2022/10/10 06:10:42;;;;;;;15.02;3.70;;;;;;;6.91;100.00;100698.44;5214902;28;20036;-77
2022/10/10 06:13:15;;;;;;;9.05;3.55;;;;;;;6.95;100.00;100690.53;5211640;28;20372;-77
2022/10/10 06:15:50;;;;;;;10.57;3.53;;;;;;;7.06;100.00;100692.94;5207827;28;20025;-77
2022/10/10 06:18:20;;;;;;;9.52;3.38;;;;;;;7.06;100.00;100692.94;5208345;28;20033;-77
2022/10/10 06:20:50;;;;;;;11.05;3.60;;;;;;;7.23;100.00;100681.31;5209217;28;20394;-77
2022/10/10 06:23:20;;;;;;;8.18;3.15;;;;;;;7.39;100.00;100678.38;5215020;28;20033;-77
2022/10/10 06:25:52;;;;;;;12.55;3.45;;;;;;;7.43;100.00;100680.03;5190595;28;20578;-77
2022/10/10 06:28:22;;;;;;;8.38;3.35;;;;;;;7.50;100.00;100681.59;5189199;28;20024;-77
2022/10/10 06:30:52;;;;;;;8.40;3.55;;;;;;;7.58;100.00;100678.84;5211859;28;20021;-77
2022/10/10 06:33:23;;;;;;;10.70;3.45;;;;;;;7.60;100.00;100672.72;5213027;28;20151;-77
2022/10/10 06:35:53;;;;;;;10.27;3.50;;;;;;;7.71;100.00;100675.94;5211204;28;20497;-77
2022/10/10 06:38:26;;;;;;;9.85;3.45;;;;;;;7.76;100.00;100679.31;5211600;28;20037;-77
2022/10/10 06:41:03;;;;;;;8.88;3.75;;;;;;;7.73;100.00;100683.72;5212899;28;20059;-77
2022/10/10 06:43:34;;;;;;;9.27;3.33;;;;;;;7.81;100.00;100677.44;5212779;28;20100;-77
2022/10/10 06:46:05;;;;;;;8.85;3.50;;;;;;;7.86;100.00;100672.97;5211756;28;20083;-76
2022/10/10 06:48:35;;;;;;;13.00;3.40;;;;;;;7.86;100.00;100674.75;5213888;28;20025;-77
2022/10/10 06:51:08;;;;;;;7.97;3.17;;;;;;;7.93;100.00;100671.97;5212808;28;20497;-77
2022/10/10 06:53:38;;;;;;;12.13;3.38;;;;;;;8.11;100.00;100668.06;5214865;28;20029;-77
2022/10/10 06:56:16;;;;;;;7.55;3.20;;;;;;;8.21;100.00;100662.63;5205064;28;20021;-77
2022/10/10 06:58:49;;;;;;;9.82;3.17;;;;;;;8.30;100.00;100664.13;5201386;28;20060;-77
2022/10/10 07:01:21;;;;;;;8.45;2.75;;;;;;;8.40;100.00;100656.06;5213543;28;20486;-77
2022/10/10 07:03:52;;;;;;;9.30;2.88;;;;;;;8.66;100.00;100652.78;5211975;28;20049;-77
2022/10/10 07:06:22;;;;;;;8.60;2.70;;;;;;;8.72;100.00;100656.06;5210395;28;20045;-77
2022/10/10 07:08:52;;;;;;;8.32;2.95;;;;;;;8.92;100.00;100661.59;5213323;28;20032;-77
2022/10/10 07:11:24;;;;;;;6.32;2.95;;;;;;;9.08;100.00;100654.22;5211935;28;20558;-77
2022/10/10 07:13:54;;;;;;;7.00;2.53;;;;;;;9.40;100.00;100653.25;5213332;28;20031;-78
2022/10/10 07:16:24;;;;;;;8.95;2.83;;;;;;;9.43;100.00;100649.66;5212685;28;20033;-77
2022/10/10 07:18:55;;;;;;;7.45;2.47;;;;;;;10.22;100.00;100655.03;5212533;28;20037;-77
2022/10/10 07:21:26;;;;;;;7.85;2.28;;;;;;;11.57;96.97;100648.38;5213092;28;20038;-78
2022/10/10 07:23:56;;;;;;;7.53;2.60;;;;;;;12.33;89.06;100641.75;5213706;28;20028;-78
2022/10/10 07:26:29;;;;;;;7.40;2.30;;;;;;;12.74;87.45;100654.00;5210147;28;20033;-77
2022/10/10 07:29:00;;;;;;;3.92;2.00;;;;;;;13.97;81.25;100649.16;5207510;28;20033;-78
2022/10/10 07:31:31;;;;;;;5.03;1.98;;;;;;;13.93;80.64;100652.00;5212042;28;20419;-77
2022/10/10 07:34:05;;;;;;;6.28;1.95;;;;;;;13.54;81.04;100651.25;5212572;28;20487;-78
2022/10/10 07:36:35;;;;;;;5.45;2.10;;;;;;;12.44;85.64;100670.19;5213840;28;20036;-77
2022/10/10 07:39:06;;;;;;;10.50;2.30;;;;;;;11.38;90.72;100675.25;5211266;28;20083;-78
2022/10/10 07:41:36;;;;;;;7.60;2.25;;;;;;;11.91;91.98;100672.34;5195889;28;20552;-77
2022/10/10 07:44:06;;;;;;;6.15;2.53;;;;;;;11.67;89.51;100675.06;5211212;28;20095;-77
2022/10/10 07:46:37;;;;;;;5.07;2.10;;;;;;;11.97;90.47;100679.94;5213587;28;20589;-77
2022/10/10 07:49:07;;;;;;;5.68;2.30;;;;;;;12.56;89.33;100673.13;5210818;28;20160;-77
2022/10/10 07:51:37;;;;;;;6.50;2.40;;;;;;;12.56;86.42;100667.03;5213688;28;20044;-77
2022/10/10 07:54:09;;;;;;;7.85;2.38;;;;;;;11.91;90.86;100669.72;5195567;28;20107;-77
2022/10/10 07:56:39;;;;;;;7.55;2.40;;;;;;;11.97;90.29;100661.59;5206644;28;20025;-77
2022/10/10 07:59:09;;;;;;;7.03;2.38;;;;;;;11.61;91.00;100663.03;5207168;28;20044;-77
2022/10/10 08:01:39;;;;;;;6.65;2.45;;;;;;;11.40;92.88;100661.22;5191963;28;20022;-77
2022/10/10 08:04:10;;;;;;;8.07;2.53;;;;;;;11.15;95.07;100654.31;5210527;28;20268;-77
2022/10/10 08:06:40;;;;;;;5.40;2.55;;;;;;;11.59;90.71;100651.78;5195154;28;20029;-77
2022/10/10 08:09:11;;;;;;;6.55;2.65;;;;;;;13.30;86.71;100650.59;5208788;28;20083;-77
2022/10/10 08:11:41;;;;;;;6.43;2.50;;;;;;;15.29;78.83;100642.34;5213775;28;20496;-78
2022/10/10 08:14:12;;;;;;;5.95;2.47;;;;;;;15.86;74.80;100634.75;5210431;28;20033;-78
2022/10/10 08:16:42;;;;;;;6.88;2.50;;;;;;;16.79;71.75;100637.19;5214454;28;20033;-78
2022/10/10 08:19:12;;;;;;;5.57;2.27;;;;;;;16.49;72.82;100641.63;5206825;28;20033;-78
2022/10/10 08:21:42;;;;;;;6.73;2.43;;;;;;;17.05;71.82;100641.75;5208763;28;20650;-78
2022/10/10 08:24:13;;;;;;;6.67;2.10;;;;;;;17.56;69.67;100634.13;5211575;28;20283;-78
2022/10/10 08:26:44;;;;;;;5.15;2.38;;;;;;;18.76;67.67;100634.88;5205645;28;20271;-78
2022/10/10 08:29:15;;;;;;;3.90;1.88;;;;;;;19.89;63.79;100630.34;5207231;28;20494;-78
2022/10/10 08:31:45;;;;;;;4.90;2.00;;;;;;;18.96;64.64;100636.19;5209550;28;20060;-78
2022/10/10 08:34:15;;;;;;;7.63;2.23;;;;;;;18.71;66.82;100630.00;5211668;28;20079;-77
2022/10/10 08:36:45;;;;;;;6.20;1.97;;;;;;;18.00;69.46;100636.56;5195757;28;20271;-76
2022/10/10 08:39:16;;;;;;;8.77;2.45;;;;;;;19.16;65.76;100619.75;5191057;28;20314;-75
2022/10/10 08:41:59;;;;;;;8.70;2.20;;;;;;;19.21;64.77;100617.66;5212883;28;20016;-76
2022/10/10 08:44:53;;;;;;;6.32;2.40;;;;;;;20.09;62.68;100613.00;5209769;28;20036;-76
2022/10/10 08:47:48;;;;;;;5.65;1.80;;;;;;;20.26;62.29;100605.47;5191554;28;20029;-76
2022/10/10 08:50:26;;;;;;;5.65;2.25;;;;;;;19.66;62.36;100614.38;5208041;28;20091;-76
2022/10/10 08:53:02;;;;;;;5.85;2.10;;;;;;;17.95;69.25;100620.13;5209247;28;20024;-76
2022/10/10 08:55:36;;;;;;;4.85;2.08;;;;;;;17.25;71.52;100617.59;5211106;28;20033;-76
2022/10/10 08:58:22;;;;;;;9.82;2.17;;;;;;;16.18;75.24;100623.22;5208738;28;20052;-73
2022/10/10 09:01:04;;;;;;;3.80;1.88;;;;;;;16.51;74.19;100617.78;5207252;28;20032;-75
2022/10/10 09:03:45;;;;;;;7.85;2.40;;;;;;;16.10;76.52;100612.28;5209958;28;20033;-75
2022/10/10 09:06:31;;;;;;;9.95;2.10;;;;;;;15.85;79.15;100627.78;5207015;28;20462;-75
2022/10/10 09:09:20;;;;;;;5.38;2.08;;;;;;;16.16;77.29;100617.19;5210204;28;20063;-75
2022/10/10 09:12:14;;;;;;;5.13;2.10;;;;;;;15.58;80.71;100612.66;5207295;28;20392;-75
2022/10/10 09:14:59;;;;;;;6.75;2.20;;;;;;;15.61;80.26;100607.22;5205473;28;20021;-75
2022/10/10 09:17:43;;;;;;;6.93;2.28;;;;;;;16.15;78.72;100610.22;5209694;28;20063;-75
2022/10/10 09:20:33;;;;;;;6.20;2.22;;;;;;;16.33;78.98;100606.50;5204541;28;20037;-75
2022/10/10 09:23:21;;;;;;;6.07;2.35;;;;;;;16.02;79.42;100606.56;5209195;28;20022;-75
2022/10/10 09:26:01;;;;;;;4.60;2.10;;;;;;;16.16;79.49;100603.13;5203472;28;20026;-75
2022/10/10 09:28:39;;;;;;;4.65;2.13;;;;;;;15.91;80.10;100590.50;5209369;28;20033;-75
2022/10/10 09:31:20;;;;;;;4.85;2.05;;;;;;;16.14;80.97;100595.34;5211919;28;20021;-76
2022/10/10 09:33:59;;;;;;;7.03;1.75;;;;;;;16.47;79.40;100600.44;5205794;28;20522;-77
2022/10/10 09:36:34;;;;;;;6.22;2.00;;;;;;;16.39;81.02;100582.44;5201132;28;20402;-77
2022/10/10 09:39:43;;;;;;;7.55;2.35;;;;;;;16.57;79.99;100583.97;5208994;28;20036;-78
2022/10/10 09:42:17;;;;;;;6.57;2.10;;;;;;;16.74;80.81;100577.69;5207566;28;20032;-77
2022/10/10 09:44:48;;;;;;;5.50;1.63;;;;;;;16.64;81.27;100582.69;5207128;28;20021;-77
2022/10/10 09:47:18;;;;;;;3.88;1.88;;;;;;;16.73;80.61;100571.56;5208166;28;20415;-78
2022/10/10 09:49:48;;;;;;;8.65;2.00;;;;;;;16.91;78.42;100570.44;5210132;28;20021;-78
2022/10/10 09:52:21;;;;;;;11.02;1.80;;;;;;;16.94;79.66;100572.91;5208656;28;20085;-77
2022/10/10 09:54:57;;;;;;;5.50;2.03;;;;;;;16.97;79.03;100565.63;5209715;28;20036;-77
2022/10/10 09:57:31;;;;;;;;;;;;;;;16.93;79.70;100571.19;5208760;28;20106;-77
2022/10/10 10:00:39;;;;;;;4.30;1.35;;;;;;;16.96;81.05;100568.38;5209552;28;19917;-77
2022/10/10 10:03:17;;;;;;;4.80;1.60;;;;;;;17.16;79.36;100566.16;5211934;28;20043;-78
2022/10/10 10:06:01;;;;;;;5.22;1.65;;;;;;;17.28;82.03;100559.31;5206760;28;20497;-78
2022/10/10 10:08:34;;;;;;;5.15;1.65;;;;;;;17.19;79.45;100554.56;5207152;28;20513;-78
2022/10/10 10:11:05;;;;;;;6.38;1.58;;;;;;;17.23;80.99;100553.44;5209454;28;20661;-78
2022/10/10 10:13:36;;;;;;;4.40;1.70;;;;;;;17.28;79.68;100548.72;5211727;28;20017;-77
2022/10/10 10:16:13;;;;;;;3.45;1.40;;;;;;;17.45;81.10;100546.72;5209719;28;20029;-78
2022/10/10 10:18:46;;;;;;;10.60;1.58;;;;;;;17.25;78.13;100548.91;5207217;28;20041;-77
2022/10/10 10:21:22;;;;;;;4.65;1.55;;;;;;;17.34;78.92;100546.56;5212955;28;20037;-78
2022/10/10 10:23:56;;;;;;;5.25;1.70;;;;;;;17.32;78.71;100551.06;5213602;28;20028;-77
2022/10/10 10:26:39;;;;;;;6.63;2.05;;;;;;;17.33;76.70;100550.09;5213575;28;20040;-76
2022/10/10 10:29:27;;;;;;;5.32;2.13;;;;;;;17.33;77.28;100554.56;5212442;28;20100;-77
2022/10/10 10:32:23;;;;;;;4.68;1.70;;;;;;;17.27;77.78;100557.56;5211891;28;20049;-77
2022/10/10 10:34:59;;;;;;;3.97;1.42;;;;;;;17.33;77.87;100562.50;5210137;28;20040;-78
2022/10/10 10:38:01;;;;;;;6.57;1.70;;;;;;;17.38;78.14;100565.72;5213938;28;20056;-78
2022/10/10 10:40:43;;;;;;;3.97;1.42;;;;;;;17.35;78.60;100565.91;5195083;28;20033;-77
2022/10/10 10:43:43;;;;;;;5.20;1.50;;;;;;;17.26;78.29;100564.66;5208515;28;20525;-77
2022/10/10 10:46:45;;;;;;;5.60;1.67;;;;;;;17.27;79.24;100561.06;5207314;28;20152;-78
2022/10/10 10:50:00;;;;;;;5.50;1.48;;;;;;;17.23;78.91;100556.06;5190338;28;20018;-77
2022/10/10 10:52:59;;;;;;;6.25;1.88;;;;;;;17.34;79.50;100553.66;5191896;28;20034;-78
2022/10/10 10:55:45;;;;;;;4.88;1.45;;;;;;;17.30;79.50;100552.94;5188596;28;20564;-78
2022/10/10 10:58:28;;;;;;;6.22;1.80;;;;;;;17.45;79.53;100557.31;5206597;28;20034;-77
2022/10/10 11:01:03;;;;;;;5.13;1.38;;;;;;;17.36;78.98;100546.47;5195157;28;20095;-77
2022/10/10 11:03:39;;;;;;;8.10;1.58;;;;;;;17.24;77.71;100552.50;5214923;28;20032;-77
2022/10/10 11:06:41;;;;;;;5.25;1.70;;;;;;;17.28;78.85;100551.38;5193233;28;20028;-77
2022/10/10 11:09:35;;;;;;;4.95;1.65;;;;;;;17.25;78.45;100555.03;5215090;28;20036;-77
2022/10/10 11:12:32;;;;;;;4.55;1.33;;;;;;;17.13;78.79;100554.97;5214252;28;20033;-77
2022/10/10 11:15:09;;;;;;;8.30;1.65;;;;;;;17.22;78.14;100552.59;5212868;28;20518;-78
2022/10/10 11:17:52;;;;;;;6.15;1.50;;;;;;;17.29;78.42;100551.25;5211010;28;20114;-77
2022/10/10 11:20:35;;;;;;;5.75;1.70;;;;;;;17.19;78.42;100550.16;5209637;28;20029;-77
2022/10/10 11:23:23;;;;;;;5.25;1.50;;;;;;;17.14;79.32;100556.66;5211805;28;20386;-78
2022/10/10 11:26:25;;;;;;;6.25;1.67;;;;;;;17.23;77.78;100545.50;5213178;28;20058;-77
2022/10/10 11:29:03;;;;;;;5.32;1.95;;;;;;;17.18;77.16;100547.59;5206215;28;20313;-77
2022/10/10 11:31:42;;;;;;;8.18;1.65;;;;;;;17.22;77.43;100538.53;5211492;28;20036;-77
2022/10/10 11:34:20;;;;;;;5.88;1.52;;;;;;;17.38;76.51;100540.16;5206743;28;20029;-77
2022/10/10 11:36:55;;;;;;;8.90;2.13;;;;;;;17.31;78.33;100536.16;5195466;28;20021;-77
2022/10/10 11:39:32;;;;;;;8.17;1.50;;;;;;;17.36;78.29;100533.25;5212185;28;20107;-77
2022/10/10 11:42:44;;;;;;;3.85;1.48;;;;;;;17.49;76.61;100529.72;5211205;28;20037;-77
2022/10/10 11:45:21;;;;;;;4.85;1.50;;;;;;;17.33;77.01;100530.78;5156589;28;20044;-77
2022/10/10 11:48:09;;;;;;;5.38;1.60;;;;;;;17.36;79.60;100530.63;5211874;28;20087;-77
2022/10/10 11:50:40;;;;;;;;;;;;;;;17.24;78.50;100532.22;5209704;28;20104;-77
2022/10/10 11:53:19;;;;;;;4.55;1.30;;;;;;;17.21;79.55;100539.47;5214371;28;19916;-78
2022/10/10 11:55:55;;;;;;;6.90;1.58;;;;;;;17.46;77.26;100529.09;5208161;28;20026;-77
2022/10/10 11:58:39;;;;;;;5.15;1.67;;;;;;;17.39;77.39;100530.41;5212676;28;20087;-78
2022/10/10 12:01:17;;;;;;;8.55;2.00;;;;;;;17.47;77.54;100525.50;5213850;28;20467;-77
2022/10/10 12:03:50;;;;;;;9.18;1.80;;;;;;;17.34;76.94;100527.22;5208479;28;20026;-75